createdAt,value
2023-02-17T00:00:05.331Z,7.60
2023-02-17T00:02:34.853Z,7.60
2023-02-17T00:05:03.005Z,7.60
2023-02-17T00:07:32.187Z,7.50
2023-02-17T00:10:00.254Z,7.40
2023-02-17T00:12:28.837Z,7.40
2023-02-17T00:14:56.988Z,7.30
2023-02-17T00:17:25.210Z,7.30
2023-02-17T00:19:56.696Z,7.20
2023-02-17T00:22:25.002Z,7.20
2023-02-17T00:24:56.008Z,7.10
2023-02-17T00:27:24.062Z,7.10
2023-02-17T00:29:52.185Z,7.10
2023-02-17T00:32:20.204Z,7.00
2023-02-17T00:34:48.355Z,7.10
2023-02-17T00:37:17.843Z,7.00
2023-02-17T00:39:45.969Z,7.00
2023-02-17T00:42:14.322Z,7.00
2023-02-17T00:44:42.425Z,7.00
2023-02-17T00:47:10.575Z,6.90
2023-02-17T00:49:38.876Z,6.90
2023-02-17T00:52:07.149Z,6.90
2023-02-17T00:54:36.626Z,6.90
2023-02-17T00:57:04.837Z,6.90
2023-02-17T00:59:32.873Z,6.80
2023-02-17T01:02:00.941Z,6.80
2023-02-17T01:04:29.394Z,6.70
2023-02-17T01:06:57.588Z,6.20
2023-02-17T01:09:25.949Z,6.70
2023-02-17T01:11:55.470Z,6.70
2023-02-17T01:14:23.492Z,6.70
2023-02-17T01:16:51.538Z,6.70
2023-02-17T01:19:20.744Z,6.70
2023-02-17T01:21:48.864Z,6.70
2023-02-17T01:24:16.901Z,6.80
2023-02-17T01:26:44.913Z,6.70
2023-02-17T01:29:14.271Z,6.70
2023-02-17T01:31:42.468Z,6.70
2023-02-17T01:34:11.985Z,6.80
2023-02-17T01:36:40.024Z,6.70
2023-02-17T01:39:08.069Z,6.80
2023-02-17T01:41:37.614Z,6.80
2023-02-17T01:44:11.931Z,6.80
2023-02-17T01:46:43.389Z,6.80
2023-02-17T01:49:23.667Z,6.80
2023-02-17T01:51:56.981Z,6.80
2023-02-17T01:54:30.402Z,6.80
2023-02-17T01:57:02.932Z,6.80
2023-02-17T01:59:32.321Z,6.80
2023-02-17T02:02:06.319Z,6.80
2023-02-17T02:04:39.058Z,6.70
2023-02-17T02:07:12.884Z,6.70
2023-02-17T02:09:47.434Z,6.70
2023-02-17T02:12:20.760Z,6.70
2023-02-17T02:14:50.915Z,6.70
2023-02-17T02:17:32.952Z,6.70
2023-02-17T02:20:36.661Z,6.60
2023-02-17T02:23:52.794Z,6.60
2023-02-17T02:26:59.002Z,6.60
2023-02-17T02:29:58.137Z,6.60
2023-02-17T02:32:50.795Z,6.50
2023-02-17T02:35:28.340Z,6.50
2023-02-17T02:38:03.733Z,6.50
2023-02-17T02:40:37.535Z,6.50
2023-02-17T02:43:06.883Z,6.50
2023-02-17T02:45:35.811Z,6.60
2023-02-17T02:48:05.689Z,6.60
2023-02-17T02:51:15.842Z,6.60
2023-02-17T02:54:00.778Z,6.60
2023-02-17T02:56:48.682Z,6.60
2023-02-17T02:59:28.857Z,6.60
2023-02-17T03:02:06.891Z,6.60
2023-02-17T03:04:40.211Z,6.60
2023-02-17T03:07:21.431Z,6.60
2023-02-17T03:09:50.831Z,6.50
2023-02-17T03:12:19.353Z,6.60
2023-02-17T03:14:49.526Z,6.60
2023-02-17T03:17:17.872Z,6.60
2023-02-17T03:19:48.012Z,6.60
2023-02-17T03:22:22.451Z,6.60
2023-02-17T03:24:50.690Z,6.60
2023-02-17T03:27:19.127Z,6.60
2023-02-17T03:29:47.503Z,6.60
2023-02-17T03:32:15.968Z,6.60
2023-02-17T03:34:44.265Z,6.60
2023-02-17T03:37:14.023Z,6.60
2023-02-17T03:39:42.318Z,6.60
2023-02-17T03:42:10.568Z,6.60
2023-02-17T03:44:38.949Z,6.60
2023-02-17T03:47:08.010Z,6.60
2023-02-17T03:49:36.365Z,6.60
2023-02-17T03:52:04.844Z,6.70
2023-02-17T03:54:34.761Z,7.40
2023-02-17T03:57:03.022Z,6.70
2023-02-17T03:59:31.290Z,6.60
2023-02-17T04:01:59.539Z,6.60
2023-02-17T04:04:27.894Z,6.60
2023-02-17T04:06:56.169Z,6.70
2023-02-17T04:09:24.463Z,6.60
2023-02-17T04:11:54.096Z,6.70
2023-02-17T04:14:22.550Z,6.70
2023-02-17T04:16:51.623Z,6.70
2023-02-17T04:19:21.216Z,6.70
2023-02-17T04:21:49.776Z,6.70
2023-02-17T04:24:18.128Z,6.70
2023-02-17T04:26:46.337Z,6.70
2023-02-17T04:29:16.154Z,6.70
2023-02-17T04:31:44.536Z,6.70
2023-02-17T04:34:12.992Z,6.70
2023-02-17T04:36:42.892Z,6.70
2023-02-17T04:39:12.632Z,6.70
2023-02-17T04:41:40.929Z,6.70
2023-02-17T04:44:09.289Z,6.70
2023-02-17T04:46:38.902Z,6.70
2023-02-17T04:49:07.147Z,6.70
2023-02-17T04:51:35.391Z,6.70
2023-02-17T04:54:03.657Z,6.70
2023-02-17T04:56:31.976Z,6.70
2023-02-17T04:59:00.279Z,6.80
2023-02-17T05:01:28.647Z,6.80
2023-02-17T05:03:58.370Z,6.80
2023-02-17T05:06:29.524Z,6.80
2023-02-17T05:08:58.321Z,6.80
2023-02-17T05:11:27.023Z,6.80
2023-02-17T05:13:55.700Z,6.80
2023-02-17T05:16:24.363Z,6.80
2023-02-17T05:18:52.961Z,6.80
2023-02-17T05:21:22.972Z,6.80
2023-02-17T05:23:51.030Z,6.80
2023-02-17T05:26:18.995Z,6.80
2023-02-17T05:28:47.056Z,6.80
2023-02-17T05:31:15.256Z,6.80
2023-02-17T05:33:43.329Z,6.80
2023-02-17T05:36:12.315Z,6.80
2023-02-17T05:38:42.088Z,6.30
2023-02-17T05:41:10.215Z,6.80
2023-02-17T05:43:38.304Z,6.80
2023-02-17T05:46:07.086Z,6.90
2023-02-17T05:48:35.620Z,6.90
2023-02-17T05:51:03.703Z,6.90
2023-02-17T05:53:32.013Z,6.90
2023-02-17T05:56:01.498Z,6.90
2023-02-17T05:58:29.979Z,6.90
2023-02-17T06:00:58.142Z,6.90
2023-02-17T06:03:26.192Z,6.90
2023-02-17T06:05:54.182Z,6.90
2023-02-17T06:08:22.183Z,6.90
2023-02-17T06:10:50.155Z,7.00
2023-02-17T06:13:19.591Z,6.90
2023-02-17T06:15:48.373Z,6.90
2023-02-17T06:18:16.429Z,6.90
2023-02-17T06:20:44.499Z,6.90
2023-02-17T06:23:12.558Z,6.90
2023-02-17T06:25:40.682Z,6.90
2023-02-17T06:28:08.801Z,6.90
2023-02-17T06:30:38.234Z,7.00
2023-02-17T06:33:06.431Z,6.90
2023-02-17T06:35:34.480Z,6.90
2023-02-17T06:38:02.612Z,7.00
2023-02-17T06:40:30.806Z,6.90
2023-02-17T06:42:58.916Z,7.00
2023-02-17T06:45:27.037Z,7.00
2023-02-17T06:47:56.607Z,7.00
2023-02-17T06:50:24.826Z,7.10
2023-02-17T06:52:53.033Z,7.10
2023-02-17T06:55:21.234Z,7.10
2023-02-17T06:57:49.420Z,7.10
2023-02-17T07:00:18.051Z,7.10
2023-02-17T07:02:46.298Z,7.20
2023-02-17T07:05:15.864Z,7.20
2023-02-17T07:07:43.961Z,7.30
2023-02-17T07:10:12.727Z,7.30
2023-02-17T07:12:40.941Z,7.40
2023-02-17T07:15:12.256Z,7.40
2023-02-17T07:17:40.549Z,7.40
2023-02-17T07:20:09.871Z,7.50
2023-02-17T07:22:39.775Z,7.50
2023-02-17T07:25:08.703Z,7.50
2023-02-17T07:27:37.365Z,7.50
2023-02-17T07:30:06.739Z,7.60
2023-02-17T07:32:35.578Z,7.60
2023-02-17T07:35:03.700Z,7.60
2023-02-17T07:37:31.747Z,7.60
2023-02-17T07:40:01.343Z,7.70
2023-02-17T07:42:29.564Z,7.70
2023-02-17T07:44:57.681Z,7.80
2023-02-17T07:47:25.845Z,7.80
2023-02-17T07:49:53.881Z,7.90
2023-02-17T07:52:22.046Z,7.90
2023-02-17T07:54:50.099Z,8.00
2023-02-17T07:57:19.589Z,8.00
2023-02-17T07:59:48.189Z,8.00
2023-02-17T08:02:16.394Z,8.10
2023-02-17T08:04:44.682Z,8.10
2023-02-17T08:07:12.792Z,8.20
2023-02-17T08:09:58.521Z,8.10
2023-02-17T08:12:45.513Z,8.20
2023-02-17T08:15:13.995Z,8.10
2023-02-17T08:17:42.153Z,8.10
2023-02-17T08:20:11.080Z,8.20
2023-02-17T08:22:39.204Z,8.30
2023-02-17T08:25:07.732Z,8.30
2023-02-17T08:27:37.314Z,8.30
2023-02-17T08:30:06.522Z,8.40
2023-02-17T08:32:34.716Z,8.40
2023-02-17T08:35:03.426Z,8.40
2023-02-17T08:40:17.401Z,8.30
2023-02-17T08:42:47.017Z,8.30
2023-02-17T08:45:15.645Z,8.40
2023-02-17T08:47:44.133Z,8.50
2023-02-17T08:50:17.165Z,8.50
2023-02-17T08:52:45.325Z,8.40
2023-02-17T08:55:13.587Z,8.40
2023-02-17T08:57:41.715Z,8.40
2023-02-17T09:00:12.897Z,8.40
2023-02-17T09:02:43.464Z,8.50
2023-02-17T09:05:12.054Z,8.50
2023-02-17T09:07:40.630Z,8.40
2023-02-17T09:10:15.629Z,8.50
2023-02-17T09:12:43.756Z,8.60
2023-02-17T09:15:13.298Z,8.50
2023-02-17T09:17:41.851Z,8.50
2023-02-17T09:20:23.857Z,8.50
2023-02-17T09:22:52.826Z,8.50
2023-02-17T09:25:21.050Z,8.60
2023-02-17T09:27:49.258Z,8.60
2023-02-17T09:30:18.901Z,8.60
2023-02-17T09:32:47.008Z,8.60
2023-02-17T09:35:16.416Z,8.70
2023-02-17T09:37:45.152Z,8.60
2023-02-17T09:40:19.247Z,8.70
2023-02-17T09:42:48.259Z,8.60
2023-02-17T09:45:23.180Z,8.60
2023-02-17T09:47:54.579Z,8.60
2023-02-17T09:50:27.555Z,8.60
2023-02-17T09:53:00.163Z,8.60
2023-02-17T09:55:33.057Z,8.60
2023-02-17T09:58:05.940Z,8.60
2023-02-17T10:00:40.507Z,8.60
2023-02-17T10:03:18.221Z,8.60
2023-02-17T10:05:52.502Z,8.60
2023-02-17T10:08:25.193Z,8.60
2023-02-17T10:10:58.917Z,8.70
2023-02-17T10:13:30.934Z,8.70
2023-02-17T10:16:06.112Z,8.80
2023-02-17T10:18:38.356Z,8.60
2023-02-17T10:21:13.025Z,8.70
2023-02-17T10:23:41.550Z,8.70
2023-02-17T10:26:21.057Z,8.70
2023-02-17T10:28:53.082Z,8.70
2023-02-17T10:31:38.410Z,8.80
2023-02-17T10:34:13.188Z,8.80
2023-02-17T10:36:54.573Z,8.80
2023-02-17T10:39:35.155Z,8.80
2023-02-17T10:42:04.245Z,8.90
2023-02-17T10:44:37.770Z,8.90
2023-02-17T10:47:07.896Z,9.10
2023-02-17T10:49:40.876Z,9.00
2023-02-17T10:52:15.548Z,9.10
2023-02-17T10:54:49.671Z,9.10
2023-02-17T10:57:20.650Z,9.10
2023-02-17T10:59:50.065Z,9.20
2023-02-17T11:02:26.394Z,9.20
2023-02-17T11:04:55.745Z,9.30
2023-02-17T11:07:33.368Z,9.20
2023-02-17T11:10:03.448Z,9.20
2023-02-17T11:12:39.690Z,9.30
2023-02-17T11:15:19.498Z,9.20
2023-02-17T11:17:50.198Z,9.30
2023-02-17T11:20:33.246Z,9.40
2023-02-17T11:23:05.692Z,9.50
2023-02-17T11:25:35.943Z,9.50
2023-02-17T11:28:07.208Z,9.50
2023-02-17T11:30:37.569Z,9.50
2023-02-17T11:33:17.811Z,9.50
2023-02-17T11:35:51.648Z,9.50
2023-02-17T11:38:21.713Z,9.60
2023-02-17T11:41:01.026Z,9.60
2023-02-17T11:43:29.866Z,9.50
2023-02-17T11:46:07.418Z,9.50
2023-02-17T11:48:53.055Z,9.60
2023-02-17T11:51:26.701Z,9.60
2023-02-17T11:54:05.569Z,9.90
2023-02-17T11:56:36.715Z,9.80
2023-02-17T11:59:27.009Z,9.80
2023-02-17T12:02:19.824Z,9.80
2023-02-17T12:05:03.075Z,9.80
2023-02-17T12:07:51.701Z,9.90
2023-02-17T12:10:26.967Z,10.00
2023-02-17T12:13:16.787Z,10.00
2023-02-17T12:15:56.887Z,9.90
2023-02-17T12:18:38.405Z,9.90
2023-02-17T12:21:13.461Z,10.00
2023-02-17T12:24:05.791Z,10.00
2023-02-17T12:26:40.672Z,10.00
2023-02-17T12:29:30.143Z,10.00
2023-02-17T12:32:15.953Z,10.10
2023-02-17T12:34:50.364Z,10.20
2023-02-17T12:37:24.384Z,10.30
2023-02-17T12:39:56.151Z,10.30
2023-02-17T12:42:27.573Z,10.30
2023-02-17T12:44:58.987Z,10.40
2023-02-17T12:47:31.808Z,10.30
2023-02-17T12:50:06.773Z,10.40
2023-02-17T12:52:42.384Z,10.50
2023-02-17T12:55:21.179Z,10.60
2023-02-17T12:57:55.862Z,10.70
2023-02-17T13:00:27.632Z,10.60
2023-02-17T13:02:59.536Z,10.60
2023-02-17T13:05:31.708Z,10.60
2023-02-17T13:08:05.844Z,10.70
2023-02-17T13:10:37.216Z,10.70
2023-02-17T13:13:08.635Z,10.70
2023-02-17T13:15:39.869Z,10.60
2023-02-17T13:18:13.056Z,10.00
2023-02-17T13:20:57.340Z,10.70
2023-02-17T13:24:01.408Z,10.70
2023-02-17T13:26:32.742Z,10.70
2023-02-17T13:29:33.176Z,10.80
2023-02-17T13:32:03.489Z,10.70
2023-02-17T13:34:35.055Z,10.80
2023-02-17T13:37:16.018Z,10.80
2023-02-17T13:39:45.787Z,10.80
2023-02-17T13:42:42.053Z,10.80
2023-02-17T13:45:17.572Z,10.80
2023-02-17T13:47:48.081Z,10.90
2023-02-17T13:50:29.453Z,10.90
2023-02-17T13:52:58.712Z,10.90
2023-02-17T13:55:28.774Z,10.80
2023-02-17T13:57:59.884Z,10.90
2023-02-17T14:00:30.821Z,10.90
2023-02-17T14:03:00.514Z,11.00
2023-02-17T14:05:38.230Z,11.00
2023-02-17T14:08:09.062Z,10.80
2023-02-17T14:10:39.302Z,11.00
2023-02-17T14:13:14.540Z,11.10
2023-02-17T14:15:53.209Z,11.10
2023-02-17T14:18:43.196Z,11.10
2023-02-17T14:21:14.096Z,11.00
2023-02-17T14:23:48.308Z,11.10
2023-02-17T14:26:32.507Z,11.00
2023-02-17T14:29:02.486Z,11.20
2023-02-17T14:31:31.083Z,11.20
2023-02-17T14:34:05.094Z,11.20
2023-02-17T14:36:36.345Z,11.30
2023-02-17T14:39:07.364Z,11.30
2023-02-17T14:41:37.294Z,11.40
2023-02-17T14:44:06.138Z,11.60
2023-02-17T14:46:35.210Z,11.60
2023-02-17T14:49:04.512Z,11.70
2023-02-17T14:51:35.367Z,11.70
2023-02-17T14:54:04.875Z,11.70
2023-02-17T14:56:37.875Z,11.60
2023-02-17T14:59:06.656Z,11.50
2023-02-17T15:01:35.385Z,11.40
2023-02-17T15:04:04.250Z,11.30
2023-02-17T15:06:39.609Z,11.20
2023-02-17T15:09:13.427Z,11.10
2023-02-17T15:11:45.812Z,11.00
2023-02-17T15:14:17.218Z,10.90
2023-02-17T15:16:46.338Z,10.80
2023-02-17T15:19:18.125Z,10.80
2023-02-17T15:21:48.924Z,10.70
2023-02-17T15:24:20.264Z,10.70
2023-02-17T15:26:50.276Z,10.60
2023-02-17T15:29:19.980Z,10.60
2023-02-17T15:31:49.393Z,10.60
2023-02-17T15:34:20.314Z,10.60
2023-02-17T15:36:48.923Z,10.60
2023-02-17T15:39:20.428Z,10.50
2023-02-17T15:41:51.313Z,10.50
2023-02-17T15:44:22.834Z,10.60
2023-02-17T15:46:54.711Z,10.50
2023-02-17T15:49:24.134Z,10.60
2023-02-17T15:51:52.971Z,10.50
2023-02-17T15:54:23.032Z,10.50
2023-02-17T15:56:53.895Z,10.20
2023-02-17T15:59:24.660Z,10.50
2023-02-17T16:01:52.864Z,10.50
2023-02-17T16:04:21.033Z,10.50
2023-02-17T16:06:49.476Z,10.50
2023-02-17T16:09:20.005Z,10.50
2023-02-17T16:11:51.055Z,10.50
2023-02-17T16:14:27.665Z,10.50
2023-02-17T16:16:56.468Z,10.40
2023-02-17T16:19:24.690Z,10.40
2023-02-17T16:21:52.929Z,10.40
2023-02-17T16:24:20.992Z,10.40
2023-02-17T16:26:49.252Z,10.40
2023-02-17T16:29:19.697Z,10.40
2023-02-17T16:31:49.882Z,10.40
2023-02-17T16:34:20.827Z,10.40
2023-02-17T16:36:50.112Z,10.30
2023-02-17T16:39:21.112Z,10.30
2023-02-17T16:41:50.394Z,10.30
2023-02-17T16:44:20.372Z,10.30
2023-02-17T16:46:51.524Z,10.30
2023-02-17T16:49:24.600Z,10.30
2023-02-17T16:51:53.131Z,10.30
2023-02-17T16:54:21.429Z,10.30
2023-02-17T16:56:51.910Z,10.30
2023-02-17T16:59:22.979Z,10.30
2023-02-17T17:01:54.172Z,10.20
2023-02-17T17:04:22.685Z,10.20
2023-02-17T17:06:52.885Z,10.30
2023-02-17T17:09:23.491Z,10.30
2023-02-17T17:11:51.841Z,10.30
2023-02-17T17:14:21.623Z,10.30
2023-02-17T17:16:56.528Z,10.30
2023-02-17T17:19:25.178Z,10.20
2023-02-17T17:21:53.513Z,10.10
2023-02-17T17:24:21.918Z,10.10
2023-02-17T17:26:51.630Z,10.10
2023-02-17T17:29:20.865Z,10.00
2023-02-17T17:31:49.603Z,10.00
2023-02-17T17:34:19.240Z,10.00
2023-02-17T17:36:49.102Z,10.00
2023-02-17T17:39:19.816Z,10.10
2023-02-17T17:41:48.358Z,10.10
2023-02-17T17:44:16.986Z,10.10
2023-02-17T17:46:45.064Z,10.10
2023-02-17T17:49:14.936Z,10.00
2023-02-17T17:51:44.535Z,10.00
2023-02-17T17:54:13.044Z,10.00
2023-02-17T17:56:43.265Z,10.00
2023-02-17T17:59:12.077Z,10.00
2023-02-17T18:01:40.308Z,10.00
2023-02-17T18:04:09.422Z,10.10
2023-02-17T18:06:41.686Z,10.10
2023-02-17T18:09:30.286Z,10.10
2023-02-17T18:12:02.487Z,10.10
2023-02-17T18:14:31.925Z,10.10
2023-02-17T18:17:00.354Z,10.20
2023-02-17T18:19:29.765Z,10.50
2023-02-17T18:21:57.833Z,10.50
2023-02-17T18:24:28.156Z,10.60
2023-02-17T18:26:56.259Z,10.70
2023-02-17T18:29:24.315Z,10.60
2023-02-17T18:31:52.868Z,10.80
2023-02-17T18:34:21.113Z,10.50
2023-02-17T18:36:49.169Z,10.30
2023-02-17T18:39:17.273Z,10.10
2023-02-17T18:41:46.675Z,9.90
2023-02-17T18:44:14.743Z,9.80
2023-02-17T18:46:42.905Z,9.80
2023-02-17T18:49:11.294Z,9.60
2023-02-17T18:51:39.405Z,9.50
2023-02-17T18:54:10.690Z,9.40
2023-02-17T18:56:39.018Z,9.30
2023-02-17T18:59:08.588Z,9.30
2023-02-17T19:01:39.453Z,9.20
2023-02-17T19:04:09.599Z,9.30
2023-02-17T19:06:37.633Z,9.20
2023-02-17T19:09:06.590Z,9.40
2023-02-17T19:11:36.000Z,9.30
2023-02-17T19:14:04.747Z,9.30
2023-02-17T19:16:34.538Z,9.30
2023-02-17T19:19:02.853Z,9.30
2023-02-17T19:21:31.391Z,9.30
2023-02-17T19:23:59.410Z,9.30
2023-02-17T19:26:27.487Z,9.30
2023-02-17T19:28:55.490Z,9.30
2023-02-17T19:31:24.496Z,9.40
2023-02-17T19:33:53.982Z,9.40
2023-02-17T19:36:23.413Z,9.40
2023-02-17T19:38:52.130Z,9.40
2023-02-17T19:41:20.725Z,9.40
2023-02-17T19:43:48.826Z,9.30
2023-02-17T19:46:19.764Z,9.30
2023-02-17T19:48:47.947Z,9.30
2023-02-17T19:51:17.353Z,9.30
2023-02-17T19:53:45.588Z,9.30
2023-02-17T19:56:15.316Z,9.10
2023-02-17T19:58:44.598Z,9.00
2023-02-17T20:01:14.889Z,9.00
2023-02-17T20:03:43.333Z,8.70
2023-02-17T20:06:13.677Z,9.00
2023-02-17T20:08:43.073Z,8.90
2023-02-17T20:11:12.411Z,8.90
2023-02-17T20:13:46.069Z,8.90
2023-02-17T20:16:16.344Z,8.90
2023-02-17T20:18:47.641Z,8.90
2023-02-17T20:21:17.828Z,8.80
2023-02-17T20:23:49.941Z,8.80
2023-02-17T20:26:21.726Z,8.80
2023-02-17T20:28:50.230Z,8.70
2023-02-17T20:31:18.957Z,8.80
2023-02-17T20:33:47.475Z,8.70
2023-02-17T20:36:15.709Z,8.80
2023-02-17T20:38:43.764Z,8.60
2023-02-17T20:41:16.952Z,8.70
2023-02-17T20:43:45.716Z,8.60
2023-02-17T20:46:15.728Z,8.60
2023-02-17T20:48:43.767Z,8.50
2023-02-17T20:51:11.827Z,8.40
2023-02-17T20:53:40.028Z,8.40
2023-02-17T20:56:14.149Z,8.20
2023-02-17T20:58:42.512Z,8.20
2023-02-17T21:01:10.917Z,8.20
2023-02-17T21:03:39.189Z,8.20
2023-02-17T21:06:19.811Z,8.20
2023-02-17T21:08:49.275Z,8.10
2023-02-17T21:11:18.942Z,8.00
2023-02-17T21:13:47.654Z,8.00
2023-02-17T21:16:18.169Z,8.30
2023-02-17T21:18:47.143Z,8.30
2023-02-17T21:21:16.012Z,8.10
2023-02-17T21:23:44.177Z,8.10
2023-02-17T21:26:13.863Z,8.10
2023-02-17T21:28:43.326Z,8.00
2023-02-17T21:31:11.740Z,8.00
2023-02-17T21:33:42.085Z,7.90
2023-02-17T21:36:11.287Z,8.10
2023-02-17T21:38:39.726Z,7.90
2023-02-17T21:41:10.510Z,7.80
2023-02-17T21:43:56.714Z,7.80
2023-02-17T21:46:26.954Z,7.80
2023-02-17T21:48:56.339Z,7.70
2023-02-17T21:51:25.186Z,7.60
2023-02-17T21:53:53.690Z,7.60
2023-02-17T21:56:22.759Z,7.60
2023-02-17T21:58:54.851Z,7.50
2023-02-17T22:01:24.251Z,7.50
2023-02-17T22:03:54.468Z,7.50
2023-02-17T22:06:24.904Z,7.50
2023-02-17T22:08:53.403Z,7.40
2023-02-17T22:11:23.694Z,7.40
2023-02-17T22:13:55.434Z,7.50
2023-02-17T22:16:24.190Z,7.60
2023-02-17T22:18:54.604Z,7.60
2023-02-17T22:21:23.127Z,7.70
2023-02-17T22:23:51.776Z,7.70
2023-02-17T22:26:22.363Z,7.70
2023-02-17T22:28:51.257Z,7.60
2023-02-17T22:31:21.598Z,7.60
2023-02-17T22:33:50.643Z,7.50
2023-02-17T22:36:23.414Z,7.50
2023-02-17T22:38:52.489Z,7.50
2023-02-17T22:41:22.424Z,6.80
2023-02-17T22:43:52.099Z,7.50
2023-02-17T22:46:21.972Z,7.50
2023-02-17T22:48:52.052Z,7.50
2023-02-17T22:51:24.738Z,7.40
2023-02-17T22:53:53.562Z,7.50
2023-02-17T22:56:22.753Z,7.40
2023-02-17T22:58:55.907Z,7.40
2023-02-17T23:01:25.198Z,7.40
2023-02-17T23:03:55.114Z,7.40
2023-02-17T23:06:26.683Z,7.40
2023-02-17T23:08:55.741Z,7.40
2023-02-17T23:11:40.463Z,7.40
2023-02-17T23:14:09.326Z,7.40
2023-02-17T23:16:37.776Z,7.40
2023-02-17T23:19:08.402Z,7.30
2023-02-17T23:21:38.044Z,7.30
2023-02-17T23:24:06.466Z,7.30
2023-02-17T23:26:34.476Z,7.30
2023-02-17T23:29:02.602Z,7.20
2023-02-17T23:31:31.008Z,7.20
2023-02-17T23:33:59.210Z,7.20
2023-02-17T23:36:27.241Z,7.20
2023-02-17T23:38:58.660Z,7.10
2023-02-17T23:41:27.285Z,7.20
2023-02-17T23:43:55.361Z,7.10
2023-02-17T23:46:23.446Z,7.10
2023-02-17T23:48:51.476Z,6.40
2023-02-17T23:51:20.317Z,7.10
2023-02-17T23:53:48.608Z,7.10
2023-02-17T23:56:21.129Z,7.00
2023-02-17T23:58:49.274Z,7.00
